Time;durP1;ratioP1;P1;durP2;ratioP2;P2;SDS_P1;SDS_P2;PMS_P1;PMS_P2;Temp;Humidity;BMP_temperature;BMP_pressure;BME280_temperature;BME280_humidity;BME280_pressure;Samples;Min_cycle;Max_cycle;Signal;HPM_P1;HPM_P2
2022/07/06 00:01:52;;;;;;;3.57;2.37;;;;;;;;;;4973945;28;20217;-74
2022/07/06 00:04:19;;;;;;;3.87;2.60;;;;;;;;;;4973906;28;20180;-74
2022/07/06 00:06:45;;;;;;;3.78;2.30;;;;;;;;;;4973010;28;20437;-74
2022/07/06 00:09:12;;;;;;;4.30;2.30;;;;;;;;;;4972385;28;20772;-74
2022/07/06 00:11:38;;;;;;;2.77;2.20;;;;;;;;;;4972179;28;20298;-74
2022/07/06 00:14:05;;;;;;;4.20;2.10;;;;;;;;;;4973751;28;20184;-74
2022/07/06 00:16:31;;;;;;;2.40;2.20;;;;;;;;;;4972395;28;20188;-75
2022/07/06 00:18:57;;;;;;;3.33;2.50;;;;;;;;;;4972010;28;20181;-74
2022/07/06 00:21:24;;;;;;;5.40;2.50;;;;;;;;;;4972681;28;20224;-74
2022/07/06 00:23:51;;;;;;;4.07;2.30;;;;;;;;;;4973676;28;20263;-74
2022/07/06 00:26:18;;;;;;;3.30;2.20;;;;;;;;;;4975509;28;20263;-74
2022/07/06 00:28:44;;;;;;;3.53;2.40;;;;;;;;;;4971666;28;20302;-75
2022/07/06 00:31:11;;;;;;;3.70;2.47;;;;;;;;;;4974483;28;20263;-74
2022/07/06 00:33:37;;;;;;;4.43;2.37;;;;;;;;;;4971499;28;20243;-74
2022/07/06 00:36:03;;;;;;;5.90;2.57;;;;;;;;;;4960093;28;20349;-74
2022/07/06 00:38:29;;;;;;;2.43;2.23;;;;;;;;;;4960008;28;20195;-77
2022/07/06 00:40:56;;;;;;;3.97;2.50;;;;;;;;;;4969234;28;20185;-74
2022/07/06 00:43:22;;;;;;;3.90;2.43;;;;;;;;;;4959943;28;20222;-74
2022/07/06 00:45:49;;;;;;;2.73;2.30;;;;;;;;;;4972988;28;20198;-74
2022/07/06 00:48:15;;;;;;;5.37;2.50;;;;;;;;;;4960787;28;20193;-74
2022/07/06 00:50:42;;;;;;;3.13;2.30;;;;;;;;;;4955333;28;20230;-76
2022/07/06 00:53:08;;;;;;;5.53;2.40;;;;;;;;;;4959120;28;20621;-75
2022/07/06 00:55:36;;;;;;;5.47;2.20;;;;;;;;;;4973266;28;20220;-74
2022/07/06 00:58:04;;;;;;;3.73;2.30;;;;;;;;;;4972244;28;20742;-75
2022/07/06 01:00:30;;;;;;;3.10;2.50;;;;;;;;;;4977967;28;20180;-76
2022/07/06 01:02:57;;;;;;;2.73;2.20;;;;;;;;;;4959702;28;20223;-74
2022/07/06 01:05:23;;;;;;;3.50;2.30;;;;;;;;;;4972857;28;20188;-74
2022/07/06 01:07:51;;;;;;;4.07;2.30;;;;;;;;;;4966983;28;20181;-74
2022/07/06 01:10:18;;;;;;;2.63;2.33;;;;;;;;;;4972227;28;20584;-74
2022/07/06 01:12:45;;;;;;;3.73;2.20;;;;;;;;;;4955065;28;21184;-74
2022/07/06 01:15:13;;;;;;;2.60;2.30;;;;;;;;;;4972632;28;20196;-74
2022/07/06 01:17:40;;;;;;;2.60;2.40;;;;;;;;;;4953978;28;20192;-74
2022/07/06 01:20:14;;;;;;;5.27;2.40;;;;;;;;;;4971804;28;20680;-76
2022/07/06 01:22:40;;;;;;;4.77;2.43;;;;;;;;;;4955129;28;20216;-75
2022/07/06 01:25:07;;;;;;;4.30;2.30;;;;;;;;;;4971984;28;20188;-74
2022/07/06 01:27:37;;;;;;;2.77;2.20;;;;;;;;;;4970993;28;20263;-74
2022/07/06 01:30:05;;;;;;;3.40;2.20;;;;;;;;;;4967335;28;20814;-75
2022/07/06 01:32:31;;;;;;;2.50;2.30;;;;;;;;;;4972274;28;20255;-74
2022/07/06 01:34:57;;;;;;;2.70;2.50;;;;;;;;;;4962193;28;20810;-76
2022/07/06 01:37:23;;;;;;;5.20;2.40;;;;;;;;;;4971453;28;20223;-79
2022/07/06 01:39:49;;;;;;;4.97;2.40;;;;;;;;;;4971884;28;20189;-75
2022/07/06 01:42:17;;;;;;;3.23;2.70;;;;;;;;;;4972182;28;20279;-76
2022/07/06 01:44:44;;;;;;;6.70;2.70;;;;;;;;;;4969597;28;20196;-74
2022/07/06 01:47:10;;;;;;;4.20;2.40;;;;;;;;;;4972001;28;20633;-75
2022/07/06 01:49:36;;;;;;;2.50;2.30;;;;;;;;;;4971231;28;20184;-74
2022/07/06 01:52:03;;;;;;;3.50;2.17;;;;;;;;;;4970859;28;20203;-75
2022/07/06 01:54:29;;;;;;;2.50;2.30;;;;;;;;;;4969046;28;20279;-74
2022/07/06 01:56:55;;;;;;;2.60;2.30;;;;;;;;;;4968422;28;20199;-74
2022/07/06 01:59:22;;;;;;;4.73;2.40;;;;;;;;;;4971457;28;20235;-74
2022/07/06 02:01:48;;;;;;;2.93;2.37;;;;;;;;;;4972704;28;20220;-74
2022/07/06 02:04:14;;;;;;;4.93;2.57;;;;;;;;;;4970747;28;20205;-74
2022/07/06 02:06:41;;;;;;;5.67;2.60;;;;;;;;;;4971110;28;20215;-74
2022/07/06 02:09:07;;;;;;;2.90;2.60;;;;;;;;;;4962675;28;20645;-75
2022/07/06 02:11:33;;;;;;;4.80;2.80;;;;;;;;;;4971740;28;20230;-77
2022/07/06 02:14:00;;;;;;;4.00;2.67;;;;;;;;;;4956319;28;20185;-74
2022/07/06 02:16:26;;;;;;;4.37;2.60;;;;;;;;;;4959988;28;20200;-74
2022/07/06 02:18:52;;;;;;;2.73;2.50;;;;;;;;;;4955454;28;20219;-74
2022/07/06 02:21:19;;;;;;;3.27;2.60;;;;;;;;;;4972004;28;20203;-76
2022/07/06 02:23:46;;;;;;;4.73;2.60;;;;;;;;;;4970169;28;20192;-74
2022/07/06 02:26:12;;;;;;;5.83;3.00;;;;;;;;;;4956021;28;20181;-74
2022/07/06 02:28:39;;;;;;;3.87;2.57;;;;;;;;;;4969545;28;20220;-74
2022/07/06 02:31:06;;;;;;;3.50;3.00;;;;;;;;;;4973686;28;20186;-74
2022/07/06 02:33:32;;;;;;;3.50;2.53;;;;;;;;;;4970508;28;20295;-74
2022/07/06 02:35:59;;;;;;;3.20;2.50;;;;;;;;;;4972337;28;20276;-74
2022/07/06 02:38:25;;;;;;;3.17;2.80;;;;;;;;;;4977225;28;20213;-74
2022/07/06 02:40:52;;;;;;;3.37;2.20;;;;;;;;;;4968893;28;20605;-76
2022/07/06 02:43:18;;;;;;;3.40;2.70;;;;;;;;;;4957630;28;20696;-74
2022/07/06 02:45:44;;;;;;;3.80;2.53;;;;;;;;;;4971536;28;20185;-74
2022/07/06 02:48:11;;;;;;;3.93;2.83;;;;;;;;;;4972492;28;20183;-74
2022/07/06 02:50:38;;;;;;;2.90;2.50;;;;;;;;;;4978020;28;20185;-74
2022/07/06 02:53:04;;;;;;;5.37;2.80;;;;;;;;;;4964944;28;20221;-74
2022/07/06 02:55:31;;;;;;;2.70;2.50;;;;;;;;;;4962374;28;20671;-74
2022/07/06 02:57:58;;;;;;;5.90;2.90;;;;;;;;;;4972228;28;20675;-76
2022/07/06 03:00:25;;;;;;;3.90;2.80;;;;;;;;;;4960530;28;20191;-74
2022/07/06 03:02:52;;;;;;;3.13;2.83;;;;;;;;;;4963180;28;20216;-76
2022/07/06 03:05:18;;;;;;;5.43;2.90;;;;;;;;;;4970416;28;20172;-75
2022/07/06 03:07:45;;;;;;;5.33;2.83;;;;;;;;;;4957627;28;20183;-74
2022/07/06 03:10:11;;;;;;;3.03;2.60;;;;;;;;;;4971471;28;20180;-74
2022/07/06 03:12:37;;;;;;;6.87;2.87;;;;;;;;;;4980296;28;20279;-74
2022/07/06 03:15:04;;;;;;;3.10;2.60;;;;;;;;;;4988596;28;20206;-73
2022/07/06 03:17:32;;;;;;;3.97;2.80;;;;;;;;;;4956860;28;20192;-73
2022/07/06 03:19:58;;;;;;;3.70;2.70;;;;;;;;;;4976674;28;20233;-73
2022/07/06 03:22:25;;;;;;;3.30;3.00;;;;;;;;;;4960265;28;20242;-76
2022/07/06 03:24:51;;;;;;;4.17;2.50;;;;;;;;;;4977697;28;20173;-73
2022/07/06 03:27:17;;;;;;;2.87;2.67;;;;;;;;;;4957076;28;20184;-73
2022/07/06 03:29:44;;;;;;;2.90;2.60;;;;;;;;;;4971873;28;20215;-73
2022/07/06 03:32:11;;;;;;;3.30;2.63;;;;;;;;;;4970351;28;20247;-75
2022/07/06 03:34:37;;;;;;;2.80;2.50;;;;;;;;;;4963940;28;20188;-73
2022/07/06 03:37:03;;;;;;;3.90;2.30;;;;;;;;;;4981686;28;20234;-75
2022/07/06 03:39:30;;;;;;;3.13;2.40;;;;;;;;;;4973663;28;21269;-75
2022/07/06 03:41:57;;;;;;;3.03;2.30;;;;;;;;;;4979275;28;20225;-73
2022/07/06 03:44:24;;;;;;;3.30;2.30;;;;;;;;;;4958775;28;20564;-76
2022/07/06 03:46:52;;;;;;;4.83;2.60;;;;;;;;;;4968648;28;20176;-74
2022/07/06 03:49:18;;;;;;;3.03;2.50;;;;;;;;;;4958110;28;20228;-73
2022/07/06 03:51:45;;;;;;;5.27;2.60;;;;;;;;;;4958401;28;20204;-75
2022/07/06 03:54:11;;;;;;;3.90;2.70;;;;;;;;;;4952339;28;20188;-73
2022/07/06 03:56:38;;;;;;;3.80;2.17;;;;;;;;;;4972955;28;20185;-73
2022/07/06 03:59:10;;;;;;;4.37;2.40;;;;;;;;;;4936012;28;20175;-73
2022/07/06 04:01:38;;;;;;;3.13;2.50;;;;;;;;;;4972368;28;20224;-74
2022/07/06 04:04:05;;;;;;;4.70;2.67;;;;;;;;;;4959271;28;20252;-70
2022/07/06 04:06:34;;;;;;;3.47;2.60;;;;;;;;;;4972088;28;20701;-70
2022/07/06 04:09:01;;;;;;;4.10;2.80;;;;;;;;;;4969248;28;20216;-71
2022/07/06 04:11:28;;;;;;;2.70;2.37;;;;;;;;;;4937111;28;20275;-70
2022/07/06 04:13:54;;;;;;;4.03;2.63;;;;;;;;;;4955192;28;20207;-70
2022/07/06 04:16:21;;;;;;;3.97;2.80;;;;;;;;;;4955869;28;20194;-71
2022/07/06 04:18:48;;;;;;;5.20;2.70;;;;;;;;;;4969798;28;20185;-73
2022/07/06 04:21:14;;;;;;;4.40;2.40;;;;;;;;;;4955595;28;20220;-70
2022/07/06 04:23:40;;;;;;;4.07;2.37;;;;;;;;;;4972688;28;20272;-70
2022/07/06 04:26:09;;;;;;;3.37;2.40;;;;;;;;;;4971875;28;20187;-71
2022/07/06 04:28:37;;;;;;;3.20;2.70;;;;;;;;;;4966139;28;20204;-71
2022/07/06 04:31:03;;;;;;;6.57;2.50;;;;;;;;;;4933543;28;20193;-71
2022/07/06 04:33:30;;;;;;;2.77;2.50;;;;;;;;;;4971617;28;20212;-70
2022/07/06 04:35:57;;;;;;;2.87;2.40;;;;;;;;;;4960139;28;20296;-70
2022/07/06 04:38:28;;;;;;;4.73;2.50;;;;;;;;;;4968552;28;20558;-71
2022/07/06 04:40:59;;;;;;;4.73;2.40;;;;;;;;;;4951223;28;20188;-72
2022/07/06 04:43:26;;;;;;;3.33;2.30;;;;;;;;;;4956792;28;20305;-71
2022/07/06 04:45:52;;;;;;;4.50;2.40;;;;;;;;;;4955849;28;20296;-71
2022/07/06 04:48:18;;;;;;;4.57;2.40;;;;;;;;;;4946073;28;20648;-70
2022/07/06 04:50:44;;;;;;;3.40;2.47;;;;;;;;;;4968636;28;20283;-70
2022/07/06 04:53:16;;;;;;;3.67;2.70;;;;;;;;;;4972727;28;20264;-71
2022/07/06 04:55:42;;;;;;;4.93;2.47;;;;;;;;;;4971455;28;20200;-71
2022/07/06 04:58:09;;;;;;;3.90;2.57;;;;;;;;;;4961421;28;20192;-70
2022/07/06 05:00:35;;;;;;;3.60;2.30;;;;;;;;;;4964171;28;20188;-70
2022/07/06 05:03:02;;;;;;;5.03;2.50;;;;;;;;;;4967393;28;20246;-70
2022/07/06 05:05:28;;;;;;;3.57;2.63;;;;;;;;;;4969653;28;20196;-70
2022/07/06 05:07:54;;;;;;;3.63;2.53;;;;;;;;;;4975450;28;20177;-71
2022/07/06 05:10:21;;;;;;;3.20;2.30;;;;;;;;;;4955508;28;20239;-71
2022/07/06 05:12:50;;;;;;;3.33;2.73;;;;;;;;;;4971016;28;20266;-70
2022/07/06 05:15:17;;;;;;;3.80;2.60;;;;;;;;;;4956984;28;20185;-71
2022/07/06 05:17:43;;;;;;;8.20;2.70;;;;;;;;;;4968439;28;20726;-71
2022/07/06 05:20:09;;;;;;;7.30;2.97;;;;;;;;;;4959265;28;20272;-78
2022/07/06 05:22:39;;;;;;;6.07;2.80;;;;;;;;;;4971343;28;20270;-84
2022/07/06 05:25:06;;;;;;;4.03;3.23;;;;;;;;;;4955320;28;20177;-77
2022/07/06 05:27:32;;;;;;;4.07;3.00;;;;;;;;;;4951697;28;20181;-77
2022/07/06 05:29:58;;;;;;;4.90;3.10;;;;;;;;;;4940268;29;20670;-81
2022/07/06 05:32:25;;;;;;;7.23;2.53;;;;;;;;;;4971620;28;20707;-78
2022/07/06 05:34:52;;;;;;;3.47;2.60;;;;;;;;;;4971311;28;20193;-79
2022/07/06 05:37:20;;;;;;;5.03;2.90;;;;;;;;;;4974690;28;20187;-79
2022/07/06 05:39:49;;;;;;;3.83;2.93;;;;;;;;;;4959310;28;20279;-78
2022/07/06 05:42:15;;;;;;;5.90;3.10;;;;;;;;;;4965013;28;20565;-78
2022/07/06 05:44:42;;;;;;;6.60;3.30;;;;;;;;;;4957939;28;20180;-84
2022/07/06 05:50:12;;;;;;;5.20;3.17;;;;;;;;;;4971781;28;20192;-79
2022/07/06 05:52:41;;;;;;;4.73;2.80;;;;;;;;;;4970801;28;20200;-80
2022/07/06 05:55:07;;;;;;;6.93;3.30;;;;;;;;;;4973353;28;20644;-80
2022/07/06 05:57:34;;;;;;;4.63;3.00;;;;;;;;;;4962264;28;20263;-79
2022/07/06 06:00:00;;;;;;;6.43;3.13;;;;;;;;;;4975268;28;20196;-80
2022/07/06 06:02:36;;;;;;;8.63;3.47;;;;;;;;;;4959983;28;20236;-79
2022/07/06 06:05:02;;;;;;;5.87;3.30;;;;;;;;;;4977512;28;20184;-80
2022/07/06 06:07:29;;;;;;;5.53;3.37;;;;;;;;;;4964086;28;20193;-80
2022/07/06 06:09:56;;;;;;;6.37;3.10;;;;;;;;;;4957597;28;20554;-78
2022/07/06 06:12:22;;;;;;;7.80;3.53;;;;;;;;;;4971731;28;20573;-80
2022/07/06 06:14:48;;;;;;;4.20;3.37;;;;;;;;;;4971028;28;20641;-79
2022/07/06 06:17:14;;;;;;;4.73;2.80;;;;;;;;;;4971792;28;21471;-78
2022/07/06 06:19:41;;;;;;;4.17;2.77;;;;;;;;;;4971107;28;20180;-78
2022/07/06 06:22:07;;;;;;;5.10;3.50;;;;;;;;;;4971731;28;20218;-77
2022/07/06 06:24:33;;;;;;;3.67;3.03;;;;;;;;;;4955072;28;20204;-75
2022/07/06 06:26:59;;;;;;;5.00;3.40;;;;;;;;;;4970699;28;20687;-75
2022/07/06 06:29:26;;;;;;;5.20;2.80;;;;;;;;;;4955251;28;20584;-75
2022/07/06 06:31:52;;;;;;;4.67;3.00;;;;;;;;;;4970818;28;20205;-76
2022/07/06 06:34:18;;;;;;;6.77;3.20;;;;;;;;;;4970738;28;20181;-75
2022/07/06 06:36:44;;;;;;;4.57;3.20;;;;;;;;;;4974699;28;20196;-75
2022/07/06 06:39:10;;;;;;;6.83;3.13;;;;;;;;;;4967413;28;20575;-75
2022/07/06 06:41:36;;;;;;;6.47;2.97;;;;;;;;;;4973575;28;20220;-75
2022/07/06 06:44:02;;;;;;;6.03;3.10;;;;;;;;;;4974467;28;20180;-75
2022/07/06 06:46:39;;;;;;;5.43;3.00;;;;;;;;;;4975050;28;20189;-77
2022/07/06 06:49:05;;;;;;;4.87;3.10;;;;;;;;;;4974230;28;20649;-76
2022/07/06 06:51:32;;;;;;;5.87;2.90;;;;;;;;;;4974237;28;20700;-75
2022/07/06 06:53:58;;;;;;;6.53;3.20;;;;;;;;;;4973149;28;20212;-76
2022/07/06 06:56:24;;;;;;;4.53;3.40;;;;;;;;;;4961202;28;20658;-76
2022/07/06 06:58:51;;;;;;;5.77;3.00;;;;;;;;;;4972367;28;20189;-76
2022/07/06 07:01:17;;;;;;;4.50;3.23;;;;;;;;;;4973920;28;20200;-75
2022/07/06 07:03:43;;;;;;;7.40;3.53;;;;;;;;;;4978437;28;20185;-76
2022/07/06 07:06:09;;;;;;;5.60;2.90;;;;;;;;;;4974021;28;20260;-76
2022/07/06 07:08:35;;;;;;;5.17;3.27;;;;;;;;;;4974259;28;20547;-76
2022/07/06 07:11:01;;;;;;;5.67;3.30;;;;;;;;;;4973616;28;20177;-76
2022/07/06 07:13:28;;;;;;;7.80;3.60;;;;;;;;;;4973644;28;20295;-76
2022/07/06 07:15:54;;;;;;;4.07;2.93;;;;;;;;;;4974479;28;20184;-75
2022/07/06 07:18:20;;;;;;;6.30;3.40;;;;;;;;;;4972630;28;20236;-76
2022/07/06 07:20:46;;;;;;;5.00;3.40;;;;;;;;;;4973531;28;20267;-76
2022/07/06 07:23:12;;;;;;;7.43;3.00;;;;;;;;;;4973435;28;20208;-76
2022/07/06 07:25:39;;;;;;;5.40;3.27;;;;;;;;;;4974695;28;20181;-76
2022/07/06 07:28:05;;;;;;;5.93;3.50;;;;;;;;;;4956380;28;20232;-77
2022/07/06 07:30:32;;;;;;;5.77;3.53;;;;;;;;;;4973184;28;20196;-76
2022/07/06 07:33:00;;;;;;;6.07;3.30;;;;;;;;;;4972830;28;20200;-76
2022/07/06 07:35:26;;;;;;;5.47;3.30;;;;;;;;;;4974216;28;20188;-76
2022/07/06 07:37:52;;;;;;;4.63;2.90;;;;;;;;;;4971712;28;20181;-76
2022/07/06 07:40:18;;;;;;;3.40;2.67;;;;;;;;;;4972841;28;21153;-76
2022/07/06 07:42:45;;;;;;;6.20;3.80;;;;;;;;;;4970350;28;20224;-76
2022/07/06 07:45:12;;;;;;;4.73;2.90;;;;;;;;;;4973724;28;20195;-75
2022/07/06 07:47:38;;;;;;;4.10;3.00;;;;;;;;;;4972453;28;20181;-75
2022/07/06 07:50:05;;;;;;;9.80;3.50;;;;;;;;;;4973301;28;20176;-76
2022/07/06 07:52:32;;;;;;;7.03;3.20;;;;;;;;;;4973706;28;20571;-76
2022/07/06 07:54:58;;;;;;;5.30;3.07;;;;;;;;;;4973693;28;20184;-75
2022/07/06 07:57:24;;;;;;;8.33;3.30;;;;;;;;;;4970568;28;20230;-76
2022/07/06 07:59:50;;;;;;;5.10;2.87;;;;;;;;;;4971894;28;20215;-75
2022/07/06 08:02:16;;;;;;;6.03;3.33;;;;;;;;;;4972589;28;20208;-76
2022/07/06 08:04:42;;;;;;;4.73;3.40;;;;;;;;;;4971900;28;20265;-76
2022/07/06 08:07:09;;;;;;;5.27;3.43;;;;;;;;;;4972003;28;20180;-77
2022/07/06 08:09:35;;;;;;;4.30;3.70;;;;;;;;;;4974014;28;20180;-77
2022/07/06 08:12:01;;;;;;;5.57;3.70;;;;;;;;;;4971063;28;20212;-76
2022/07/06 08:14:27;;;;;;;5.20;4.17;;;;;;;;;;4973111;28;20176;-76
2022/07/06 08:16:53;;;;;;;4.23;3.73;;;;;;;;;;4968464;28;20223;-76
2022/07/06 08:19:20;;;;;;;7.80;3.93;;;;;;;;;;4959349;28;20181;-76
2022/07/06 08:21:46;;;;;;;7.73;4.10;;;;;;;;;;4971381;28;20224;-76
2022/07/06 08:24:12;;;;;;;4.53;4.13;;;;;;;;;;4971453;28;20247;-76
2022/07/06 08:26:38;;;;;;;4.60;3.93;;;;;;;;;;4973271;28;20239;-76
2022/07/06 08:29:04;;;;;;;7.07;4.70;;;;;;;;;;4967407;28;20316;-75
2022/07/06 08:31:31;;;;;;;7.47;4.33;;;;;;;;;;4971389;28;20223;-76
2022/07/06 08:33:57;;;;;;;5.27;4.40;;;;;;;;;;4972654;28;20216;-75
2022/07/06 08:36:23;;;;;;;5.73;4.27;;;;;;;;;;4971931;28;20216;-76
2022/07/06 08:38:50;;;;;;;5.83;4.40;;;;;;;;;;4971272;28;20188;-74
2022/07/06 08:41:16;;;;;;;5.77;4.20;;;;;;;;;;4971701;28;20267;-77
2022/07/06 08:43:43;;;;;;;5.23;4.10;;;;;;;;;;4969786;28;20200;-78
2022/07/06 08:46:09;;;;;;;5.37;3.90;;;;;;;;;;4965698;28;20204;-77
2022/07/06 08:48:40;;;;;;;5.33;4.27;;;;;;;;;;4964302;28;20181;-76
2022/07/06 08:51:06;;;;;;;5.43;3.87;;;;;;;;;;4963501;28;20208;-76
2022/07/06 08:53:33;;;;;;;5.17;3.97;;;;;;;;;;4970853;28;20192;-76
2022/07/06 08:56:00;;;;;;;4.27;3.70;;;;;;;;;;4971893;28;20351;-77
2022/07/06 08:58:27;;;;;;;6.67;3.97;;;;;;;;;;4971814;28;20310;-77
2022/07/06 09:00:54;;;;;;;7.23;4.17;;;;;;;;;;4955494;28;20263;-77
2022/07/06 09:03:20;;;;;;;5.03;3.90;;;;;;;;;;4970882;28;20216;-78
2022/07/06 09:05:47;;;;;;;4.90;3.70;;;;;;;;;;4971363;28;20235;-77
2022/07/06 09:08:14;;;;;;;5.47;3.17;;;;;;;;;;4967703;28;20195;-77
2022/07/06 09:10:40;;;;;;;6.77;3.70;;;;;;;;;;4968266;28;20188;-76
2022/07/06 09:13:08;;;;;;;6.50;3.43;;;;;;;;;;4971968;28;20339;-77
2022/07/06 09:15:35;;;;;;;5.03;3.17;;;;;;;;;;4972529;28;20223;-77
2022/07/06 09:18:01;;;;;;;4.30;3.13;;;;;;;;;;4977843;28;20199;-76
2022/07/06 09:20:27;;;;;;;4.87;3.13;;;;;;;;;;4974711;28;20243;-76
2022/07/06 09:22:58;;;;;;;4.53;3.30;;;;;;;;;;4974398;28;20212;-77
2022/07/06 09:25:24;;;;;;;6.17;2.90;;;;;;;;;;4972544;28;20208;-76
2022/07/06 09:27:54;;;;;;;4.27;3.20;;;;;;;;;;4972112;28;20185;-79
2022/07/06 09:30:21;;;;;;;4.33;2.93;;;;;;;;;;4971920;28;20259;-77
2022/07/06 09:32:49;;;;;;;5.40;3.47;;;;;;;;;;4971157;28;20323;-76
2022/07/06 09:35:29;;;;;;;5.97;3.50;;;;;;;;;;4972446;28;20184;-78
2022/07/06 09:38:05;;;;;;;4.63;3.20;;;;;;;;;;4964854;28;20264;-76
2022/07/06 09:40:32;;;;;;;6.83;2.70;;;;;;;;;;4972218;28;20180;-76
2022/07/06 09:43:08;;;;;;;10.43;2.90;;;;;;;;;;4962755;28;20216;-76
2022/07/06 09:45:36;;;;;;;4.80;3.10;;;;;;;;;;4971460;28;20184;-77
2022/07/06 09:48:11;;;;;;;3.90;2.83;;;;;;;;;;4971323;28;20172;-77
2022/07/06 09:50:41;;;;;;;4.53;3.03;;;;;;;;;;4971932;28;20672;-76
2022/07/06 09:53:09;;;;;;;4.07;2.70;;;;;;;;;;4971608;28;20209;-77
2022/07/06 09:55:35;;;;;;;4.03;2.90;;;;;;;;;;4969412;28;20656;-77
2022/07/06 09:58:01;;;;;;;4.53;3.03;;;;;;;;;;4971371;28;20272;-77
2022/07/06 10:00:28;;;;;;;4.43;2.97;;;;;;;;;;4971474;28;20291;-77
2022/07/06 10:02:55;;;;;;;5.43;3.13;;;;;;;;;;4970270;28;20719;-77
2022/07/06 10:05:29;;;;;;;3.57;2.80;;;;;;;;;;4971867;28;20525;-76
2022/07/06 10:07:57;;;;;;;6.23;3.00;;;;;;;;;;4969884;28;20240;-78
2022/07/06 10:10:25;;;;;;;5.13;2.83;;;;;;;;;;4972757;28;20179;-78
2022/07/06 10:12:52;;;;;;;6.17;2.93;;;;;;;;;;4973850;28;20247;-77
2022/07/06 10:15:19;;;;;;;7.67;2.67;;;;;;;;;;4973197;28;20176;-76
2022/07/06 10:17:47;;;;;;;4.33;2.40;;;;;;;;;;4973502;28;20268;-76
2022/07/06 10:20:14;;;;;;;4.83;2.33;;;;;;;;;;4974888;28;20187;-78
2022/07/06 10:22:41;;;;;;;6.73;2.50;;;;;;;;;;4974166;28;20221;-81
2022/07/06 10:25:07;;;;;;;5.70;2.90;;;;;;;;;;4965099;28;20181;-78
2022/07/06 10:27:33;;;;;;;3.00;2.40;;;;;;;;;;4978947;28;20173;-77
2022/07/06 10:29:59;;;;;;;7.10;2.40;;;;;;;;;;4971062;28;20695;-75
2022/07/06 10:32:26;;;;;;;2.47;1.80;;;;;;;;;;4974998;28;20229;-79
2022/07/06 10:34:52;;;;;;;2.87;2.00;;;;;;;;;;4970688;28;20182;-78
2022/07/06 10:37:23;;;;;;;2.30;2.10;;;;;;;;;;4975277;28;20260;-76
2022/07/06 10:42:56;;;;;;;4.53;2.30;;;;;;;;;;4971824;28;20307;-76
2022/07/06 10:45:28;;;;;;;4.90;2.40;;;;;;;;;;4971771;28;20191;-78
2022/07/06 10:48:12;;;;;;;4.50;2.40;;;;;;;;;;4957350;28;20196;-77
2022/07/06 10:50:40;;;;;;;5.97;2.60;;;;;;;;;;4977203;28;20226;-77
2022/07/06 10:53:25;;;;;;;5.30;2.40;;;;;;;;;;4974498;28;20203;-77
2022/07/06 10:55:53;;;;;;;3.10;2.43;;;;;;;;;;4973002;28;20200;-77
2022/07/06 10:58:51;;;;;;;2.20;2.00;;;;;;;;;;4972390;28;20708;-77
2022/07/06 11:01:18;;;;;;;4.17;2.20;;;;;;;;;;4928601;28;20277;-78
2022/07/06 11:04:08;;;;;;;1.90;1.80;;;;;;;;;;4975248;28;20199;-77
2022/07/06 11:06:36;;;;;;;3.87;2.00;;;;;;;;;;4951572;28;20200;-77
2022/07/06 11:09:03;;;;;;;4.33;2.00;;;;;;;;;;4971845;28;20192;-77
2022/07/06 11:11:35;;;;;;;2.60;1.97;;;;;;;;;;4973284;28;20191;-77
2022/07/06 11:14:09;;;;;;;4.63;2.13;;;;;;;;;;4971501;28;20188;-77
2022/07/06 11:17:00;;;;;;;4.57;2.00;;;;;;;;;;4972371;28;20191;-78
2022/07/06 11:19:27;;;;;;;3.37;1.93;;;;;;;;;;4972314;28;20724;-80
2022/07/06 11:21:56;;;;;;;3.07;1.77;;;;;;;;;;4971601;28;20579;-77
2022/07/06 11:24:23;;;;;;;9.00;1.77;;;;;;;;;;4972537;28;20222;-78
2022/07/06 11:26:51;;;;;;;6.37;1.70;;;;;;;;;;4975690;28;20739;-77
2022/07/06 11:29:18;;;;;;;2.13;1.40;;;;;;;;;;4966246;28;20193;-77
2022/07/06 11:31:45;;;;;;;3.63;1.70;;;;;;;;;;4972685;28;20290;-77
2022/07/06 11:34:14;;;;;;;2.60;1.57;;;;;;;;;;4974936;28;20315;-77
2022/07/06 11:36:40;;;;;;;1.93;1.73;;;;;;;;;;4978915;28;20172;-77
2022/07/06 11:39:07;;;;;;;2.93;1.60;;;;;;;;;;4972421;28;20185;-77
2022/07/06 11:41:38;;;;;;;2.03;1.67;;;;;;;;;;4973581;28;20216;-77
2022/07/06 11:44:04;;;;;;;2.80;1.50;;;;;;;;;;4973681;28;20590;-78
2022/07/06 11:46:31;;;;;;;2.27;1.43;;;;;;;;;;4959549;28;20172;-77
2022/07/06 11:49:08;;;;;;;1.70;1.60;;;;;;;;;;4973459;28;20188;-77
2022/07/06 11:51:36;;;;;;;1.83;1.50;;;;;;;;;;4976089;28;20186;-77
2022/07/06 11:54:07;;;;;;;2.50;1.30;;;;;;;;;;4972027;28;20189;-77
2022/07/06 11:56:34;;;;;;;5.07;1.43;;;;;;;;;;4973640;28;20522;-77
2022/07/06 11:59:01;;;;;;;3.67;1.60;;;;;;;;;;4973325;28;20248;-77
2022/07/06 12:01:28;;;;;;;2.20;1.43;;;;;;;;;;4973683;28;20907;-78
2022/07/06 12:03:59;;;;;;;1.80;1.50;;;;;;;;;;4972711;28;20183;-77
2022/07/06 12:06:26;;;;;;;1.73;1.30;;;;;;;;;;4951998;28;20194;-77
2022/07/06 12:08:54;;;;;;;4.20;1.60;;;;;;;;;;4973467;28;20188;-77
2022/07/06 12:11:21;;;;;;;1.77;1.57;;;;;;;;;;4973692;28;20188;-77
2022/07/06 12:13:47;;;;;;;3.50;1.60;;;;;;;;;;4970112;28;20706;-77
2022/07/06 12:16:15;;;;;;;3.00;1.67;;;;;;;;;;4973279;28;20227;-78
2022/07/06 12:18:42;;;;;;;1.63;1.37;;;;;;;;;;4972937;28;20189;-79
2022/07/06 12:21:13;;;;;;;1.40;1.20;;;;;;;;;;4973848;28;20276;-78
2022/07/06 12:23:43;;;;;;;1.67;1.17;;;;;;;;;;4971310;28;20218;-78
2022/07/06 12:26:10;;;;;;;1.97;1.30;;;;;;;;;;4975600;28;20185;-77
2022/07/06 12:28:37;;;;;;;2.43;1.50;;;;;;;;;;4971233;28;20203;-78
2022/07/06 12:31:03;;;;;;;3.77;1.43;;;;;;;;;;4968915;28;20229;-78
2022/07/06 12:33:30;;;;;;;3.93;1.80;;;;;;;;;;4938655;28;20212;-78
2022/07/06 12:35:56;;;;;;;3.03;1.63;;;;;;;;;;4972608;28;20643;-78
2022/07/06 12:38:26;;;;;;;4.60;1.70;;;;;;;;;;4971698;28;20196;-78
2022/07/06 12:40:53;;;;;;;2.40;1.60;;;;;;;;;;4969366;28;20192;-81
2022/07/06 12:43:38;;;;;;;2.07;1.53;;;;;;;;;;4974771;28;20217;-82
2022/07/06 12:46:23;;;;;;;4.50;1.60;;;;;;;;;;4972076;28;20606;-80
2022/07/06 12:48:55;;;;;;;2.37;1.70;;;;;;;;;;4970377;28;20194;-79
2022/07/06 12:51:22;;;;;;;2.73;2.17;;;;;;;;;;4955443;28;20204;-79
2022/07/06 12:53:48;;;;;;;4.00;2.03;;;;;;;;;;4971007;28;20189;-80
2022/07/06 12:56:15;;;;;;;2.33;2.10;;;;;;;;;;4977191;28;20187;-79
2022/07/06 12:59:02;;;;;;;3.83;2.03;;;;;;;;;;4978566;28;20187;-81
2022/07/06 13:01:28;;;;;;;4.77;1.90;;;;;;;;;;4961059;28;20210;-79
2022/07/06 13:03:55;;;;;;;2.33;2.10;;;;;;;;;;4975388;28;20727;-78
2022/07/06 13:06:32;;;;;;;2.10;1.90;;;;;;;;;;4975586;28;20214;-80
2022/07/06 13:08:58;;;;;;;2.17;1.90;;;;;;;;;;4973889;28;20187;-80
2022/07/06 13:11:24;;;;;;;3.17;1.90;;;;;;;;;;4957418;28;20257;-83
2022/07/06 13:13:50;;;;;;;3.90;2.03;;;;;;;;;;4955946;28;20185;-81
2022/07/06 13:16:17;;;;;;;2.67;1.97;;;;;;;;;;4973924;28;20205;-80
2022/07/06 13:18:43;;;;;;;2.23;2.03;;;;;;;;;;4981665;28;20574;-77
2022/07/06 13:21:09;;;;;;;2.37;2.17;;;;;;;;;;4980442;28;20186;-79
2022/07/06 13:23:35;;;;;;;4.43;2.03;;;;;;;;;;4987572;28;20708;-80
2022/07/06 13:26:02;;;;;;;3.60;1.93;;;;;;;;;;4972220;28;20270;-80
2022/07/06 13:28:28;;;;;;;4.63;2.20;;;;;;;;;;4972818;28;20210;-80
2022/07/06 13:30:54;;;;;;;2.10;1.90;;;;;;;;;;4979700;28;20655;-79
2022/07/06 13:33:20;;;;;;;2.67;2.00;;;;;;;;;;4981318;28;20241;-80
2022/07/06 13:35:48;;;;;;;4.37;1.93;;;;;;;;;;4971505;28;20256;-79
2022/07/06 13:38:14;;;;;;;2.30;2.00;;;;;;;;;;4971081;28;20184;-80
2022/07/06 13:40:41;;;;;;;2.07;1.90;;;;;;;;;;4957335;28;20555;-80
2022/07/06 13:43:07;;;;;;;3.57;3.20;;;;;;;;;;4972152;28;20692;-80
2022/07/06 13:45:33;;;;;;;2.30;2.10;;;;;;;;;;4970980;28;20183;-79
2022/07/06 13:47:59;;;;;;;3.27;1.90;;;;;;;;;;4972207;28;20200;-79
2022/07/06 13:50:27;;;;;;;1.97;1.67;;;;;;;;;;4977002;28;20172;-79
2022/07/06 13:52:54;;;;;;;1.93;1.73;;;;;;;;;;4957623;28;20303;-79
2022/07/06 13:55:20;;;;;;;3.87;1.87;;;;;;;;;;4971669;28;20700;-79
2022/07/06 13:57:47;;;;;;;1.97;1.50;;;;;;;;;;4971767;28;20194;-79
2022/07/06 14:00:14;;;;;;;2.07;1.40;;;;;;;;;;4967626;28;20191;-80
2022/07/06 14:02:40;;;;;;;5.10;1.40;;;;;;;;;;4971958;28;20255;-79
2022/07/06 14:05:07;;;;;;;1.43;1.20;;;;;;;;;;4971351;28;20177;-78
2022/07/06 14:07:33;;;;;;;1.87;1.40;;;;;;;;;;4955168;28;20756;-80
2022/07/06 14:09:59;;;;;;;4.40;1.70;;;;;;;;;;4971183;28;20277;-80
2022/07/06 14:12:26;;;;;;;2.53;1.50;;;;;;;;;;4972285;28;20202;-79
2022/07/06 14:14:52;;;;;;;2.97;1.50;;;;;;;;;;4970230;28;20215;-79
2022/07/06 14:17:19;;;;;;;2.90;1.50;;;;;;;;;;4971366;28;20192;-80
2022/07/06 14:19:45;;;;;;;2.37;1.50;;;;;;;;;;4970502;28;20188;-79
2022/07/06 14:22:11;;;;;;;5.60;1.87;;;;;;;;;;4967098;28;20231;-80
2022/07/06 14:24:37;;;;;;;3.10;1.37;;;;;;;;;;4967723;28;20195;-78
2022/07/06 14:27:04;;;;;;;4.17;1.40;;;;;;;;;;4970809;28;20277;-80
2022/07/06 14:29:30;;;;;;;3.00;1.20;;;;;;;;;;4970654;28;20791;-81
2022/07/06 14:31:56;;;;;;;1.60;1.50;;;;;;;;;;4970838;28;22279;-82
2022/07/06 14:34:22;;;;;;;3.20;1.50;;;;;;;;;;4970439;28;20190;-80
2022/07/06 14:36:49;;;;;;;2.00;1.27;;;;;;;;;;4967962;28;20201;-80
2022/07/06 14:39:15;;;;;;;2.60;1.33;;;;;;;;;;4972942;28;20189;-81
2022/07/06 14:41:41;;;;;;;1.47;1.37;;;;;;;;;;4971473;28;20238;-80
2022/07/06 14:44:07;;;;;;;1.70;1.30;;;;;;;;;;4972101;28;20192;-80
2022/07/06 14:46:34;;;;;;;3.10;1.47;;;;;;;;;;4972152;28;20511;-80
2022/07/06 14:49:00;;;;;;;1.40;1.30;;;;;;;;;;4967681;28;20196;-80
2022/07/06 14:51:27;;;;;;;3.07;1.27;;;;;;;;;;4973313;28;20243;-80